Time;durP1;ratioP1;P1;durP2;ratioP2;P2;SDS_P1;SDS_P2;PMS_P1;PMS_P2;Temp;Humidity;BMP_temperature;BMP_pressure;BME280_temperature;BME280_humidity;BME280_pressure;Samples;Min_cycle;Max_cycle;Signal;HPM_P1;HPM_P2
2022/04/11 00:00:33;;;;;;;;;;;;;;;8.52;47.91;100866.34;4998574;28;6955;-75
2022/04/11 00:02:59;;;;;;;;;;;;;;;8.54;47.89;100864.78;4981953;28;7927;-75
2022/04/11 00:05:25;;;;;;;;;;;;;;;8.57;47.85;100865.00;4981117;28;7146;-75
2022/04/11 00:07:50;;;;;;;;;;;;;;;8.60;47.25;100867.72;4998479;28;6884;-75
2022/04/11 00:10:16;;;;;;;;;;;;;;;8.63;47.69;100863.59;4983242;28;6800;-74
2022/04/11 00:12:42;;;;;;;;;;;;;;;8.64;48.30;100866.25;4979470;28;6891;-74
2022/04/11 00:15:09;;;;;;;;;;;;;;;8.66;47.50;100859.56;4981998;28;6890;-74
2022/04/11 00:17:36;;;;;;;;;;;;;;;8.68;47.64;100859.66;4960491;28;7011;-74
2022/04/11 00:20:04;;;;;;;;;;;;;;;8.72;47.73;100853.94;4984008;28;7004;-74
2022/04/11 00:22:29;;;;;;;;;;;;;;;8.77;47.68;100851.69;4980018;28;6959;-74
2022/04/11 00:24:55;;;;;;;;;;;;;;;8.81;47.47;100848.56;4979403;28;8523;-74
2022/04/11 00:27:21;;;;;;;;;;;;;;;8.85;47.37;100838.63;4999054;28;6946;-75
2022/04/11 00:29:47;;;;;;;;;;;;;;;8.90;47.14;100838.91;5000091;28;6910;-75
2022/04/11 00:32:13;;;;;;;;;;;;;;;8.95;47.54;100834.06;4976604;28;6800;-75
2022/04/11 00:34:38;;;;;;;;;;;;;;;8.97;47.07;100830.78;4985848;28;7321;-75
2022/04/11 00:37:04;;;;;;;;;;;;;;;9.01;46.78;100831.88;4983028;28;6815;-75
2022/04/11 00:39:30;;;;;;;;;;;;;;;9.03;47.36;100828.63;4981681;28;6799;-74
2022/04/11 00:41:56;;;;;;;;;;;;;;;9.06;47.24;100835.59;4981679;28;7183;-74
2022/04/11 00:44:21;;;;;;;;;;;;;;;9.09;47.28;100834.91;4998103;28;6815;-74
2022/04/11 00:46:47;;;;;;;;;;;;;;;9.10;47.32;100824.75;4979991;28;6907;-74
2022/04/11 00:49:12;;;;;;;;;;;;;;;9.13;46.99;100816.41;4986726;28;7236;-74
2022/04/11 00:51:39;;;;;;;;;;;;;;;9.14;46.66;100816.50;4983415;28;6788;-74
2022/04/11 00:54:07;;;;;;;;;;;;;;;9.20;46.95;100820.19;4981826;28;6796;-74
2022/04/11 00:56:38;;;;;;;;;;;;;;;9.22;46.61;100816.06;4981450;28;6879;-75
2022/04/11 00:59:03;;;;;;;;;;;;;;;9.25;46.61;100814.56;4980630;28;6895;-75
2022/04/11 01:01:29;;;;;;;;;;;;;;;9.28;46.75;100813.88;4994853;28;6965;-75
2022/04/11 01:03:56;;;;;;;;;;;;;;;9.30;46.65;100813.19;4979945;28;7540;-75
2022/04/11 01:06:22;;;;;;;;;;;;;;;9.33;46.87;100816.72;4980184;28;6828;-75
2022/04/11 01:08:48;;;;;;;;;;;;;;;9.35;46.56;100815.13;4980820;28;6947;-75
2022/04/11 01:11:14;;;;;;;;;;;;;;;9.35;47.00;100807.44;4955611;28;6900;-75
2022/04/11 01:13:42;;;;;;;;;;;;;;;9.38;47.46;100807.66;4973114;28;7230;-75
2022/04/11 01:16:07;;;;;;;;;;;;;;;9.38;46.58;100797.41;4979453;28;6996;-75
2022/04/11 01:18:38;;;;;;;;;;;;;;;9.40;46.30;100806.06;4977339;28;6788;-75
2022/04/11 01:21:08;;;;;;;;;;;;;;;9.39;46.26;100796.63;5000218;28;6804;-75
2022/04/11 01:23:34;;;;;;;;;;;;;;;9.41;47.08;100800.16;4964283;28;6808;-75
2022/04/11 01:26:01;;;;;;;;;;;;;;;9.42;45.74;100795.13;4960809;28;6788;-75
2022/04/11 01:28:27;;;;;;;;;;;;;;;9.44;46.37;100790.09;4978737;28;6808;-75
2022/04/11 01:30:55;;;;;;;;;;;;;;;9.46;46.26;100796.16;4978749;28;6787;-75
2022/04/11 01:33:29;;;;;;;;;;;;;;;9.46;45.93;100793.59;4980397;28;7219;-75
2022/04/11 01:35:55;;;;;;;;;;;;;;;9.47;46.07;100787.72;4978728;28;8615;-75
2022/04/11 01:38:21;;;;;;;;;;;;;;;9.48;46.71;100786.94;4978094;28;6804;-75
2022/04/11 01:40:53;;;;;;;;;;;;;;;9.48;45.63;100788.59;4982234;28;6824;-75
2022/04/11 01:43:19;;;;;;;;;;;;;;;9.48;45.72;100796.25;4981903;28;6912;-75
2022/04/11 01:45:44;;;;;;;;;;;;;;;9.45;46.04;100785.06;4964658;28;6960;-75
2022/04/11 01:48:11;;;;;;;;;;;;;;;9.44;45.43;100792.63;4959136;28;6969;-75
2022/04/11 01:50:37;;;;;;;;;;;;;;;9.40;46.39;100780.47;4980153;28;6962;-75
2022/04/11 01:53:06;;;;;;;;;;;;;;;9.38;46.52;100782.94;4960660;28;6784;-75
2022/04/11 01:55:31;;;;;;;;;;;;;;;9.36;46.34;100783.63;4994436;28;7213;-75
2022/04/11 01:57:57;;;;;;;;;;;;;;;9.31;46.05;100784.25;4958294;28;6784;-75
2022/04/11 02:00:23;;;;;;;;;;;;;;;9.30;46.30;100779.03;4978020;28;7062;-75
2022/04/11 02:02:48;;;;;;;;;;;;;;;9.27;46.06;100779.75;4978320;28;6796;-75
2022/04/11 02:05:14;;;;;;;;;;;;;;;9.24;46.75;100773.56;4980918;28;6942;-75
2022/04/11 02:07:40;;;;;;;;;;;;;;;9.20;45.49;100781.84;4982314;28;6926;-75
2022/04/11 02:10:06;;;;;;;;;;;;;;;9.14;45.65;100782.34;4982849;28;6867;-75
2022/04/11 02:12:32;;;;;;;;;;;;;;;9.06;46.06;100784.47;4996455;28;6824;-75
2022/04/11 02:14:57;;;;;;;;;;;;;;;9.00;46.46;100782.41;4982744;28;7092;-75
2022/04/11 02:17:23;;;;;;;;;;;;;;;8.94;46.65;100786.28;4994546;28;6792;-74
2022/04/11 02:19:49;;;;;;;;;;;;;;;8.87;46.94;100782.44;4980749;28;6930;-75
2022/04/11 02:22:14;;;;;;;;;;;;;;;8.80;46.82;100780.34;4982891;28;6874;-75
2022/04/11 02:24:40;;;;;;;;;;;;;;;8.74;46.69;100773.19;4988793;28;6823;-75
2022/04/11 02:27:06;;;;;;;;;;;;;;;8.67;47.34;100778.69;4963300;28;7720;-75
2022/04/11 02:29:31;;;;;;;;;;;;;;;8.62;47.04;100778.41;4979938;28;6891;-75
2022/04/11 02:31:57;;;;;;;;;;;;;;;8.57;47.25;100779.78;4980619;28;6827;-75
2022/04/11 02:34:25;;;;;;;;;;;;;;;8.51;47.17;100779.41;4986136;28;6823;-75
2022/04/11 02:36:51;;;;;;;;;;;;;;;8.45;47.64;100769.63;4983182;28;6812;-75
2022/04/11 02:39:16;;;;;;;;;;;;;;;8.42;47.20;100774.56;4982557;28;7145;-75
2022/04/11 02:41:42;;;;;;;;;;;;;;;8.38;48.04;100780.28;4984079;28;8357;-74
2022/04/11 02:44:08;;;;;;;;;;;;;;;8.32;47.75;100773.97;4985533;28;6863;-73
2022/04/11 02:46:34;;;;;;;;;;;;;;;8.32;47.53;100775.66;4985931;28;6776;-73
2022/04/11 02:48:59;;;;;;;;;;;;;;;8.30;47.89;100770.47;4986196;28;6787;-73
2022/04/11 02:51:25;;;;;;;;;;;;;;;8.29;47.91;100771.25;4987226;28;6795;-73
2022/04/11 02:53:51;;;;;;;;;;;;;;;8.29;47.94;100770.34;4984369;28;8944;-74
2022/04/11 02:56:16;;;;;;;;;;;;;;;8.28;47.69;100766.03;4985214;28;7468;-73
2022/04/11 02:58:42;;;;;;;;;;;;;;;8.28;48.49;100768.59;4982001;28;6942;-73
2022/04/11 03:01:08;;;;;;;;;;;;;;;8.28;48.15;100766.03;4977378;28;6788;-73
2022/04/11 03:03:35;;;;;;;;;;;;;;;8.28;48.68;100766.03;4985662;28;6771;-73
2022/04/11 03:06:01;;;;;;;;;;;;;;;8.27;47.40;100764.25;4986289;28;8063;-73
2022/04/11 03:08:27;;;;;;;;;;;;;;;8.27;48.08;100766.81;4997469;28;7192;-73
2022/04/11 03:10:53;;;;;;;;;;;;;;;8.25;47.78;100774.38;5000588;28;8070;-73
2022/04/11 03:13:18;;;;;;;;;;;;;;;8.23;48.12;100770.84;4981194;28;6780;-73
2022/04/11 03:15:44;;;;;;;;;;;;;;;8.20;48.54;100771.53;4982345;28;6863;-73
2022/04/11 03:18:10;;;;;;;;;;;;;;;8.18;48.83;100762.03;4983818;28;6918;-73
2022/04/11 03:20:35;;;;;;;;;;;;;;;8.14;47.53;100762.59;4984983;28;6847;-73
2022/04/11 03:23:01;;;;;;;;;;;;;;;8.12;48.55;100761.63;5001022;28;6799;-73
2022/04/11 03:25:27;;;;;;;;;;;;;;;8.09;47.64;100761.44;4982267;28;6855;-73
2022/04/11 03:27:52;;;;;;;;;;;;;;;8.06;48.07;100762.13;4974311;28;7820;-73
2022/04/11 03:30:18;;;;;;;;;;;;;;;8.02;48.92;100752.50;4978025;28;8457;-73
2022/04/11 03:32:44;;;;;;;;;;;;;;;7.97;48.70;100756.44;4963798;28;6807;-73
2022/04/11 03:35:09;;;;;;;;;;;;;;;7.92;48.22;100754.47;4984973;28;7219;-73
2022/04/11 03:37:35;;;;;;;;;;;;;;;7.86;48.78;100754.06;4984706;28;6808;-73
2022/04/11 03:40:01;;;;;;;;;;;;;;;7.80;47.96;100758.75;4980543;28;6812;-73
2022/04/11 03:42:27;;;;;;;;;;;;;;;7.74;48.59;100764.34;4982607;28;7247;-73
2022/04/11 03:44:53;;;;;;;;;;;;;;;7.69;48.84;100759.75;4999078;28;6972;-73
2022/04/11 03:47:18;;;;;;;;;;;;;;;7.63;49.37;100756.03;4966756;28;6784;-73
2022/04/11 03:49:44;;;;;;;;;;;;;;;7.58;48.85;100759.03;4976962;28;6906;-73
2022/04/11 03:52:10;;;;;;;;;;;;;;;7.52;49.35;100762.06;4981486;28;8287;-73
2022/04/11 03:54:36;;;;;;;;;;;;;;;7.47;49.11;100760.88;4982540;28;7815;-73
2022/04/11 03:57:01;;;;;;;;;;;;;;;7.41;48.80;100758.81;4982109;28;6791;-73
2022/04/11 03:59:27;;;;;;;;;;;;;;;7.35;49.32;100756.75;4975222;28;7233;-73
2022/04/11 04:01:53;;;;;;;;;;;;;;;7.28;49.59;100757.09;4983291;28;6796;-73
2022/04/11 04:04:18;;;;;;;;;;;;;;;7.23;49.29;100759.34;4979742;28;6811;-73
2022/04/11 04:06:44;;;;;;;;;;;;;;;7.17;49.74;100758.06;4983143;28;6922;-73
2022/04/11 04:09:10;;;;;;;;;;;;;;;7.12;49.37;100762.84;4976816;28;7212;-73
2022/04/11 04:11:35;;;;;;;;;;;;;;;7.06;49.76;100762.41;4959963;28;6803;-73
2022/04/11 04:14:01;;;;;;;;;;;;;;;7.01;50.05;100764.66;4983171;28;6820;-73
2022/04/11 04:16:27;;;;;;;;;;;;;;;6.97;49.85;100764.34;4975361;28;7526;-73
2022/04/11 04:18:52;;;;;;;;;;;;;;;6.91;49.82;100765.69;4979039;28;6780;-73
2022/04/11 04:21:18;;;;;;;;;;;;;;;6.85;49.63;100756.72;4957870;28;6864;-73
2022/04/11 04:23:45;;;;;;;;;;;;;;;6.81;50.04;100763.31;5000393;28;6990;-73
2022/04/11 04:26:10;;;;;;;;;;;;;;;6.75;50.14;100758.63;4981823;28;6812;-73
2022/04/11 04:28:36;;;;;;;;;;;;;;;6.72;50.34;100760.97;4985779;28;6803;-73
2022/04/11 04:31:02;;;;;;;;;;;;;;;6.68;50.62;100756.47;4982028;28;6784;-73
2022/04/11 04:33:30;;;;;;;;;;;;;;;6.64;50.39;100760.47;4982588;28;6803;-73
2022/04/11 04:35:56;;;;;;;;;;;;;;;6.62;50.44;100763.69;4981187;28;6803;-73
2022/04/11 04:38:22;;;;;;;;;;;;;;;6.61;50.73;100761.91;4984731;28;6886;-73
2022/04/11 04:40:47;;;;;;;;;;;;;;;6.58;50.78;100760.03;4984980;28;7794;-73
2022/04/11 04:43:13;;;;;;;;;;;;;;;6.59;50.83;100760.94;4998806;28;6788;-73
2022/04/11 04:45:39;;;;;;;;;;;;;;;6.56;51.12;100751.41;4984483;28;6863;-73
2022/04/11 04:48:06;;;;;;;;;;;;;;;6.57;50.96;100757.34;4983480;28;6792;-73
2022/04/11 04:50:32;;;;;;;;;;;;;;;6.58;50.66;100754.06;4979163;28;7214;-73
2022/04/11 04:52:58;;;;;;;;;;;;;;;6.58;51.17;100754.94;4960536;28;7189;-73
2022/04/11 04:55:24;;;;;;;;;;;;;;;6.61;50.85;100756.81;4999768;28;6811;-73
2022/04/11 04:57:49;;;;;;;;;;;;;;;6.63;51.37;100757.78;4962657;28;6788;-73
2022/04/11 05:00:16;;;;;;;;;;;;;;;6.66;51.42;100758.00;4999461;28;6923;-73
2022/04/11 05:02:43;;;;;;;;;;;;;;;6.67;51.50;100753.03;4983539;28;6811;-73
2022/04/11 05:05:11;;;;;;;;;;;;;;;6.70;51.54;100752.34;4981561;28;7164;-73
2022/04/11 05:07:37;;;;;;;;;;;;;;;6.73;51.00;100756.78;5002233;28;7022;-73
2022/04/11 05:10:04;;;;;;;;;;;;;;;6.74;51.01;100761.09;4983642;28;6883;-73
2022/04/11 05:12:45;;;;;;;;;;;;;;;6.74;51.61;100756.88;4997093;28;6819;-73
2022/04/11 05:15:12;;;;;;;;;;;;;;;6.75;51.60;100751.00;4980086;28;6991;-73
2022/04/11 05:17:38;;;;;;;;;;;;;;;6.76;51.07;100745.16;4998548;28;7153;-73
2022/04/11 05:20:07;;;;;;;;;;;;;;;6.76;51.40;100746.81;4979318;28;6795;-73
2022/04/11 05:22:33;;;;;;;;;;;;;;;6.78;51.87;100747.78;4998526;28;7162;-73
2022/04/11 05:24:59;;;;;;;;;;;;;;;6.83;51.11;100748.09;4982089;28;6807;-73
2022/04/11 05:27:25;;;;;;;;;;;;;;;6.85;51.98;100744.88;4984773;28;6800;-73
2022/04/11 05:29:51;;;;;;;;;;;;;;;6.89;51.56;100744.31;4983290;28;6816;-73
2022/04/11 05:32:16;;;;;;;;;;;;;;;6.95;51.89;100746.38;4982334;28;6827;-73
2022/04/11 05:34:42;;;;;;;;;;;;;;;6.99;51.73;100743.28;4982753;28;6862;-73
2022/04/11 05:37:07;;;;;;;;;;;;;;;7.06;51.63;100739.47;4981941;28;6874;-73
2022/04/11 05:39:33;;;;;;;;;;;;;;;7.14;51.58;100747.63;4954862;28;7244;-73
2022/04/11 05:41:59;;;;;;;;;;;;;;;7.24;52.13;100744.91;4973231;28;6882;-73
2022/04/11 05:44:24;;;;;;;;;;;;;;;7.32;51.45;100746.31;4979523;28;6971;-73
2022/04/11 05:46:52;;;;;;;;;;;;;;;7.43;52.24;100741.94;4985377;28;7831;-73
2022/04/11 05:49:24;;;;;;;;;;;;;;;7.56;52.14;100741.09;4968550;28;7070;-73
2022/04/11 05:51:50;;;;;;;;;;;;;;;7.69;51.54;100746.97;4978828;28;7426;-73
2022/04/11 05:54:16;;;;;;;;;;;;;;;7.79;51.65;100741.69;4987992;28;6950;-73
2022/04/11 05:56:42;;;;;;;;;;;;;;;7.90;52.20;100737.28;4970075;28;6784;-73
2022/04/11 05:59:08;;;;;;;;;;;;;;;7.99;51.54;100742.09;4995659;28;7137;-73
2022/04/11 06:01:38;;;;;;;;;;;;;;;8.11;51.68;100740.34;4982769;28;7484;-73
2022/04/11 06:04:04;;;;;;;;;;;;;;;8.21;51.11;100734.13;4985468;28;7161;-73
2022/04/11 06:06:29;;;;;;;;;;;;;;;8.30;50.80;100736.34;4956532;28;7422;-73
2022/04/11 06:08:55;;;;;;;;;;;;;;;8.39;50.58;100736.94;4982826;28;6795;-73
2022/04/11 06:11:21;;;;;;;;;;;;;;;8.46;51.14;100733.97;4980549;28;6803;-73
2022/04/11 06:13:46;;;;;;;;;;;;;;;8.54;51.40;100737.03;4940761;28;6986;-73
2022/04/11 06:16:12;;;;;;;;;;;;;;;8.64;50.32;100743.59;4981906;28;6791;-73
2022/04/11 06:18:39;;;;;;;;;;;;;;;8.72;51.26;100737.28;4980696;28;6788;-73
2022/04/11 06:21:05;;;;;;;;;;;;;;;8.82;51.06;100735.28;4980800;28;7876;-73
2022/04/11 06:23:32;;;;;;;;;;;;;;;8.92;51.70;100735.06;4978201;28;6804;-73
2022/04/11 06:25:59;;;;;;;;;;;;;;;9.04;50.36;100734.91;4981722;28;6836;-73
2022/04/11 06:28:24;;;;;;;;;;;;;;;9.16;50.75;100734.72;5000792;28;7285;-73
2022/04/11 06:30:50;;;;;;;;;;;;;;;9.29;50.73;100736.34;4981670;28;6795;-73
2022/04/11 06:33:18;;;;;;;;;;;;;;;9.43;50.09;100732.03;4956598;28;6808;-73
2022/04/11 06:35:44;;;;;;;;;;;;;;;9.58;50.32;100719.22;4982569;28;7908;-73
2022/04/11 06:38:09;;;;;;;;;;;;;;;9.72;51.05;100722.59;4978571;28;6879;-73
2022/04/11 06:40:35;;;;;;;;;;;;;;;9.88;50.47;100718.34;4980256;28;6784;-73
2022/04/11 06:43:00;;;;;;;;;;;;;;;10.01;49.71;100715.66;4993571;28;6815;-73
2022/04/11 06:45:26;;;;;;;;;;;;;;;10.16;49.93;100717.31;4994847;28;7368;-73
2022/04/11 06:47:52;;;;;;;;;;;;;;;10.30;50.74;100718.91;4974955;28;6960;-73
2022/04/11 06:50:18;;;;;;;;;;;;;;;10.44;50.24;100718.84;4995817;28;6792;-73
2022/04/11 06:52:43;;;;;;;;;;;;;;;10.59;50.13;100722.19;4979514;28;6866;-73
2022/04/11 06:55:09;;;;;;;;;;;;;;;10.71;49.83;100711.72;4979857;28;6783;-73
2022/04/11 06:57:35;;;;;;;;;;;;;;;10.84;49.42;100718.38;4978030;28;6815;-73
2022/04/11 07:00:01;;;;;;;;;;;;;;;10.98;49.22;100713.94;4964470;28;6800;-73
2022/04/11 07:02:27;;;;;;;;;;;;;;;11.08;49.12;100717.84;4982908;28;6780;-73
2022/04/11 07:04:53;;;;;;;;;;;;;;;11.17;48.71;100715.75;4984812;28;8633;-73
2022/04/11 07:07:19;;;;;;;;;;;;;;;11.29;48.91;100714.59;4976239;28;6968;-73
2022/04/11 07:09:46;;;;;;;;;;;;;;;11.39;48.31;100714.25;5002466;28;6820;-73
2022/04/11 07:12:11;;;;;;;;;;;;;;;11.49;48.57;100708.81;4984973;28;6896;-73
2022/04/11 07:14:38;;;;;;;;;;;;;;;11.60;48.61;100714.44;4986124;28;6808;-73
2022/04/11 07:17:05;;;;;;;;;;;;;;;11.72;48.41;100718.41;4980690;28;7108;-73
2022/04/11 07:19:31;;;;;;;;;;;;;;;11.81;48.03;100719.75;4986415;28;7115;-73
2022/04/11 07:21:57;;;;;;;;;;;;;;;11.92;47.94;100716.81;4983626;28;6816;-73
2022/04/11 07:24:23;;;;;;;;;;;;;;;12.03;47.50;100720.78;4985389;28;7236;-73
2022/04/11 07:26:48;;;;;;;;;;;;;;;12.12;47.65;100709.19;4959652;28;8501;-73
2022/04/11 07:29:14;;;;;;;;;;;;;;;12.22;47.40;100711.38;4998352;28;7696;-73
2022/04/11 07:31:40;;;;;;;;;;;;;;;12.31;47.16;100711.81;4963047;28;6800;-73
2022/04/11 07:34:05;;;;;;;;;;;;;;;12.41;47.11;100702.84;4988326;28;7245;-73
2022/04/11 07:36:31;;;;;;;;;;;;;;;12.50;47.11;100702.34;4982985;28;6874;-73
2022/04/11 07:38:57;;;;;;;;;;;;;;;12.56;46.16;100705.22;4998517;28;6890;-73
2022/04/11 07:41:24;;;;;;;;;;;;;;;12.63;46.08;100699.50;4958979;28;7038;-73
2022/04/11 07:43:51;;;;;;;;;;;;;;;12.71;46.54;100699.88;4985253;28;7639;-73
2022/04/11 07:46:16;;;;;;;;;;;;;;;12.80;45.91;100694.22;4980911;28;7904;-73
2022/04/11 07:48:42;;;;;;;;;;;;;;;12.90;45.83;100693.81;4966692;28;6800;-73
2022/04/11 07:51:08;;;;;;;;;;;;;;;13.02;45.66;100692.56;4980104;28;6811;-73
2022/04/11 07:53:33;;;;;;;;;;;;;;;13.13;45.30;100688.75;5000081;28;6863;-73
2022/04/11 07:55:59;;;;;;;;;;;;;;;13.24;45.62;100694.38;4983399;28;7622;-73
2022/04/11 07:58:24;;;;;;;;;;;;;;;13.33;46.11;100683.59;4983061;28;6957;-73
2022/04/11 08:00:53;;;;;;;;;;;;;;;13.44;44.85;100681.44;4977473;28;6931;-73
2022/04/11 08:03:20;;;;;;;;;;;;;;;13.57;44.86;100682.84;4984772;28;6816;-73
2022/04/11 08:05:46;;;;;;;;;;;;;;;13.69;45.02;100685.91;4983918;28;7358;-73
2022/04/11 08:08:13;;;;;;;;;;;;;;;13.80;44.65;100664.84;4955129;28;7877;-73
2022/04/11 08:10:39;;;;;;;;;;;;;;;13.92;44.17;100674.75;4978146;28;6998;-73
2022/04/11 08:13:05;;;;;;;;;;;;;;;14.02;43.75;100667.44;4984293;28;6799;-74
2022/04/11 08:15:32;;;;;;;;;;;;;;;14.12;44.48;100665.22;4976536;28;6788;-74
2022/04/11 08:17:59;;;;;;;;;;;;;;;14.25;43.54;100674.31;5003468;28;6792;-74
2022/04/11 08:20:27;;;;;;;;;;;;;;;14.37;43.84;100668.69;4988240;28;7234;-74
2022/04/11 08:22:53;;;;;;;;;;;;;;;14.50;42.80;100667.44;4977701;28;7864;-74
2022/04/11 08:25:19;;;;;;;;;;;;;;;14.61;43.03;100663.53;4965876;28;6792;-74
2022/04/11 08:27:45;;;;;;;;;;;;;;;14.73;42.72;100658.00;4987703;28;6803;-74
2022/04/11 08:30:15;;;;;;;;;;;;;;;14.82;42.08;100663.47;4985923;28;6788;-74
2022/04/11 08:32:48;;;;;;;;;;;;;;;14.89;42.32;100659.38;4984332;28;6808;-74
2022/04/11 08:35:15;;;;;;;;;;;;;;;14.99;42.06;100650.28;4958693;28;7063;-74
2022/04/11 08:37:41;;;;;;;;;;;;;;;15.09;42.08;100648.88;4984649;28;7290;-74
2022/04/11 08:40:11;;;;;;;;;;;;;;;15.19;41.26;100643.19;4983691;28;6776;-74
2022/04/11 08:42:42;;;;;;;;;;;;;;;15.28;42.03;100638.31;4968155;28;7013;-74
2022/04/11 08:45:09;;;;;;;;;;;;;;;15.39;41.94;100628.34;4983777;28;7181;-74
2022/04/11 08:47:35;;;;;;;;;;;;;;;15.50;41.15;100627.81;4975118;28;6804;-74
2022/04/11 08:50:04;;;;;;;;;;;;;;;15.61;41.10;100625.56;4985180;28;6883;-74
2022/04/11 08:52:31;;;;;;;;;;;;;;;15.73;40.77;100628.53;4984197;28;6816;-74
2022/04/11 08:54:57;;;;;;;;;;;;;;;15.85;40.42;100621.97;4968282;28;7055;-73
2022/04/11 08:57:23;;;;;;;;;;;;;;;15.99;40.47;100625.00;4999481;28;7000;-73
2022/04/11 08:59:49;;;;;;;;;;;;;;;16.11;40.68;100627.91;4982528;28;8655;-73
2022/04/11 09:02:15;;;;;;;;;;;;;;;16.24;40.04;100624.88;4999370;28;7297;-73
2022/04/11 09:04:54;;;;;;;;;;;;;;;16.39;39.77;100636.47;4981223;28;6831;-74
2022/04/11 09:07:21;;;;;;;;;;;;;;;16.49;39.68;100625.53;5000099;28;6972;-74
2022/04/11 09:09:47;;;;;;;;;;;;;;;16.59;39.50;100628.38;4975768;28;6974;-74
2022/04/11 09:12:17;;;;;;;;;;;;;;;16.64;38.50;100631.97;4964080;28;7253;-74
2022/04/11 09:14:44;;;;;;;;;;;;;;;16.69;38.12;100632.97;4995740;28;6792;-74
2022/04/11 09:17:11;;;;;;;;;;;;;;;16.73;38.24;100628.75;4977379;28;6792;-74
2022/04/11 09:19:40;;;;;;;;;;;;;;;16.78;38.53;100619.41;4994622;28;7334;-74
2022/04/11 09:22:06;;;;;;;;;;;;;;;16.86;38.32;100620.47;4956851;28;6880;-74
2022/04/11 09:24:32;;;;;;;;;;;;;;;16.93;38.38;100622.38;4982462;28;6772;-74
2022/04/11 09:26:58;;;;;;;;;;;;;;;17.00;38.13;100617.34;4983585;28;7199;-74
2022/04/11 09:29:26;;;;;;;;;;;;;;;17.08;38.28;100613.28;4982227;28;6815;-74
2022/04/11 09:31:53;;;;;;;;;;;;;;;17.16;37.81;100614.34;4979146;28;6879;-75
2022/04/11 09:34:25;;;;;;;;;;;;;;;17.28;38.27;100624.09;4999793;28;6958;-75
2022/04/11 09:36:53;;;;;;;;;;;;;;;17.44;38.08;100622.78;4984019;28;6820;-75
2022/04/11 09:39:31;;;;;;;;;;;;;;;17.63;38.06;100605.91;4983757;28;6804;-75
2022/04/11 09:41:57;;;;;;;;;;;;;;;17.86;37.98;100602.94;4982032;28;6966;-75
2022/04/11 09:44:35;;;;;;;;;;;;;;;18.13;37.76;100596.63;4983645;28;6864;-75
2022/04/11 09:47:04;;;;;;;;;;;;;;;18.52;37.12;100584.38;4960824;28;7079;-75
2022/04/11 09:49:31;;;;;;;;;;;;;;;19.11;36.54;100584.50;4998208;28;6808;-75
2022/04/11 09:52:07;;;;;;;;;;;;;;;19.90;35.37;100574.38;5000204;28;6812;-75
2022/04/11 09:54:59;;;;;;;;;;;;;;;20.70;34.49;100568.28;4986678;28;7285;-75
2022/04/11 09:57:31;;;;;;;;;;;;;;;21.60;34.06;100563.72;4982174;28;6819;-75
2022/04/11 10:00:00;;;;;;;;;;;;;;;22.39;33.11;100563.13;4975811;28;7030;-75
2022/04/11 10:02:27;;;;;;;;;;;;;;;23.06;32.41;100556.22;4997289;28;6816;-75
2022/04/11 10:04:54;;;;;;;;;;;;;;;23.63;30.66;100554.38;4979557;28;6808;-76
2022/04/11 10:07:21;;;;;;;;;;;;;;;23.97;30.09;100547.25;4997282;28;6812;-75
2022/04/11 10:09:47;;;;;;;;;;;;;;;24.29;29.58;100547.09;4959546;28;6867;-75
2022/04/11 10:12:13;;;;;;;;;;;;;;;24.65;29.31;100545.09;4982494;28;6812;-75
2022/04/11 10:14:42;;;;;;;;;;;;;;;24.99;29.00;100534.31;4981648;28;6882;-75
2022/04/11 10:17:07;;;;;;;;;;;;;;;25.32;27.90;100523.47;4954968;28;7000;-75
2022/04/11 10:19:42;;;;;;;;;;;;;;;25.52;27.24;100528.53;4995091;28;7248;-75
2022/04/11 10:22:21;;;;;;;;;;;;;;;25.62;27.47;100527.53;4985002;28;8261;-75
2022/04/11 10:25:04;;;;;;;;;;;;;;;25.76;27.08;100522.13;4983833;28;7061;-75
2022/04/11 10:27:32;;;;;;;;;;;;;;;25.98;27.13;100523.56;4960435;28;8521;-76
2022/04/11 10:29:59;;;;;;;;;;;;;;;26.15;26.22;100518.09;4978357;28;6812;-75
2022/04/11 10:32:30;;;;;;;;;;;;;;;26.42;26.11;100516.81;4979878;28;7286;-75
2022/04/11 10:35:00;;;;;;;;;;;;;;;26.70;25.73;100513.72;4979207;28;6880;-75
2022/04/11 10:37:31;;;;;;;;;;;;;;;26.89;25.42;100511.63;4979098;28;6855;-75
2022/04/11 10:40:15;;;;;;;;;;;;;;;27.23;24.87;100510.13;4979579;28;7029;-75
2022/04/11 10:43:05;;;;;;;;;;;;;;;27.36;24.24;100502.00;4983761;28;7008;-75
2022/04/11 10:45:41;;;;;;;;;;;;;;;27.43;24.48;100501.00;4986158;28;6896;-75
2022/04/11 10:48:09;;;;;;;;;;;;;;;27.50;23.64;100502.56;4984313;28;6895;-75
2022/04/11 10:50:38;;;;;;;;;;;;;;;27.51;23.74;100493.78;4986355;28;7023;-75
2022/04/11 10:53:24;;;;;;;;;;;;;;;27.63;23.68;100497.13;4998798;28;7359;-75
2022/04/11 10:56:05;;;;;;;;;;;;;;;27.79;23.49;100489.72;5001593;28;7031;-76
2022/04/11 10:58:48;;;;;;;;;;;;;;;27.78;23.11;100483.59;4984420;28;6883;-75
2022/04/11 11:01:15;;;;;;;;;;;;;;;27.84;23.13;100475.56;4987068;28;7130;-75
2022/04/11 11:03:58;;;;;;;;;;;;;;;28.01;23.17;100479.59;4966094;28;7162;-75
2022/04/11 11:06:25;;;;;;;;;;;;;;;28.10;22.77;100466.19;4984289;28;6811;-75
2022/04/11 11:08:50;;;;;;;;;;;;;;;28.10;22.96;100470.59;4981750;28;7172;-75
2022/04/11 11:11:24;;;;;;;;;;;;;;;27.97;22.46;100464.72;4968854;28;7042;-75
2022/04/11 11:13:56;;;;;;;;;;;;;;;27.85;23.04;100461.50;4998084;28;6871;-75
2022/04/11 11:16:21;;;;;;;;;;;;;;;27.78;22.70;100462.53;5000366;28;6811;-75
2022/04/11 11:18:53;;;;;;;;;;;;;;;27.76;22.82;100459.06;4984856;28;6811;-75
2022/04/11 11:21:27;;;;;;;;;;;;;;;27.88;22.74;100459.69;4986589;28;7605;-75
2022/04/11 11:24:06;;;;;;;;;;;;;;;28.08;23.01;100440.78;4981742;28;7799;-75
2022/04/11 11:26:55;;;;;;;;;;;;;;;28.16;22.37;100452.00;4984843;28;7190;-75
2022/04/11 11:29:32;;;;;;;;;;;;;;;28.08;22.06;100454.81;4981956;28;9004;-75
2022/04/11 11:32:05;;;;;;;;;;;;;;;27.91;21.79;100444.69;4967277;28;6800;-75
2022/04/11 11:34:38;;;;;;;;;;;;;;;27.86;22.03;100436.88;4985232;28;6884;-75
2022/04/11 11:37:05;;;;;;;;;;;;;;;27.95;22.07;100434.94;4983246;28;7169;-75
2022/04/11 11:39:37;;;;;;;;;;;;;;;28.06;22.16;100422.38;4981676;28;6808;-75
2022/04/11 11:42:06;;;;;;;;;;;;;;;28.21;21.94;100426.44;4994292;28;6823;-75
2022/04/11 11:44:48;;;;;;;;;;;;;;;28.35;21.74;100425.22;4980192;28;6827;-75
2022/04/11 11:47:15;;;;;;;;;;;;;;;28.29;20.97;100423.59;4985329;28;6808;-75
2022/04/11 11:49:46;;;;;;;;;;;;;;;28.24;20.92;100414.94;5000483;28;6819;-75
2022/04/11 11:52:19;;;;;;;;;;;;;;;28.31;21.20;100406.00;4981324;28;7258;-75
2022/04/11 11:54:47;;;;;;;;;;;;;;;28.34;19.99;100390.09;4982176;28;6820;-75
2022/04/11 11:57:25;;;;;;;;;;;;;;;28.37;19.92;100395.28;4999878;28;6804;-75
2022/04/11 11:59:55;;;;;;;;;;;;;;;28.38;20.19;100385.59;4984925;28;6884;-75
2022/04/11 12:05:35;;;;;;;;;;;;;;;28.54;20.84;100386.06;4978362;28;8045;-75
2022/04/11 12:08:13;;;;;;;;;;;;;;;28.69;20.78;100379.50;4985165;28;6820;-75
2022/04/11 12:10:48;;;;;;;;;;;;;;;28.75;20.59;100383.72;4981976;28;7080;-75
2022/04/11 12:13:34;;;;;;;;;;;;;;;28.86;20.38;100379.03;4971678;28;7015;-75
2022/04/11 12:16:15;;;;;;;;;;;;;;;28.94;20.54;100378.84;4982071;28;7008;-75
2022/04/11 12:18:52;;;;;;;;;;;;;;;28.90;19.28;100378.06;4999226;28;7220;-75
2022/04/11 12:21:32;;;;;;;;;;;;;;;28.68;20.08;100375.13;4985597;28;6803;-75
2022/04/11 12:23:59;;;;;;;;;;;;;;;28.58;19.59;100366.59;4979101;28;7739;-75
2022/04/11 12:26:32;;;;;;;;;;;;;;;28.57;20.07;100370.16;4986648;28;6804;-75
2022/04/11 12:29:07;;;;;;;;;;;;;;;28.47;20.08;100368.66;4966709;28;7212;-75
2022/04/11 12:31:33;;;;;;;;;;;;;;;28.36;20.25;100363.72;4977593;28;7022;-75
2022/04/11 12:34:11;;;;;;;;;;;;;;;28.29;20.14;100360.34;4985123;28;6792;-74
2022/04/11 12:36:37;;;;;;;;;;;;;;;28.25;20.14;100370.13;4999067;28;6888;-75
2022/04/11 12:39:13;;;;;;;;;;;;;;;28.18;20.75;100362.38;4985016;28;6991;-75
2022/04/11 12:41:48;;;;;;;;;;;;;;;28.14;20.56;100364.22;4983678;28;7259;-75
2022/04/11 12:44:36;;;;;;;;;;;;;;;28.16;20.51;100361.56;4985806;28;6892;-75
2022/04/11 12:47:02;;;;;;;;;;;;;;;28.08;20.11;100348.59;4984040;28;6796;-75
2022/04/11 12:49:52;;;;;;;;;;;;;;;27.78;20.73;100344.06;4980400;28;6772;-75
2022/04/11 12:52:24;;;;;;;;;;;;;;;27.56;21.12;100341.94;4980556;28;6819;-75
2022/04/11 12:55:02;;;;;;;;;;;;;;;27.44;20.99;100334.31;4998287;28;7009;-75
2022/04/11 12:57:32;;;;;;;;;;;;;;;27.37;21.05;100340.63;4999538;28;6819;-75
2022/04/11 13:00:23;;;;;;;;;;;;;;;27.37;21.48;100333.56;4981770;28;6975;-75